createdAt,value
2023-04-24T00:00:41.878Z,96517.84
2023-04-24T00:03:10.330Z,96536.59
2023-04-24T00:05:38.609Z,96526.69
2023-04-24T00:08:07.230Z,96521.38
2023-04-24T00:10:35.479Z,96516.44
2023-04-24T00:13:03.653Z,96519.97
2023-04-24T00:15:32.267Z,96513.09
2023-04-24T00:18:02.426Z,96361.19
2023-04-24T00:20:33.546Z,96503.63
2023-04-24T00:23:01.778Z,96421.13
2023-04-24T00:25:29.963Z,96421.66
2023-04-24T00:27:58.109Z,96505.16
2023-04-24T00:30:26.226Z,96495.25
2023-04-24T00:32:54.426Z,96501.50
2023-04-24T00:35:24.456Z,96506.53
2023-04-24T00:37:52.715Z,96510.16
2023-04-24T00:40:20.917Z,96504.75
2023-04-24T00:42:49.113Z,96495.69
2023-04-24T00:45:17.392Z,96489.50
2023-04-24T00:47:46.017Z,96496.09
2023-04-24T00:50:14.607Z,96497.28
2023-04-24T00:52:44.402Z,96497.63
2023-04-24T00:55:12.982Z,96484.13
2023-04-24T00:57:41.705Z,96489.59
2023-04-24T01:00:13.111Z,96493.78
2023-04-24T01:02:45.344Z,96483.97
2023-04-24T01:05:14.385Z,96483.97
2023-04-24T01:07:48.263Z,96487.41
2023-04-24T01:10:18.774Z,96472.19
2023-04-24T01:12:47.149Z,96489.00
2023-04-24T01:15:15.387Z,96482.19
2023-04-24T01:17:43.566Z,96494.66
2023-04-24T01:20:13.072Z,96485.25
2023-04-24T01:22:42.807Z,96494.50
2023-04-24T01:25:11.330Z,96361.75
2023-04-24T01:27:39.936Z,96405.16
2023-04-24T01:30:09.792Z,96456.97
2023-04-24T01:32:38.835Z,96484.50
2023-04-24T01:35:08.460Z,96361.19
2023-04-24T01:37:38.393Z,96481.34
2023-04-24T01:40:09.985Z,96423.78
2023-04-24T01:42:38.361Z,96465.75
2023-04-24T01:45:07.824Z,96453.56
2023-04-24T01:47:36.159Z,96428.72
2023-04-24T01:50:04.993Z,96453.50
2023-04-24T01:52:34.521Z,96461.56
2023-04-24T01:55:03.069Z,96468.19
2023-04-24T01:57:33.302Z,96463.16
2023-04-24T02:00:01.834Z,96463.88
2023-04-24T02:02:31.086Z,96467.09
2023-04-24T02:04:59.588Z,96427.78
2023-04-24T02:07:27.848Z,96466.81
2023-04-24T02:09:56.606Z,96466.19
2023-04-24T02:12:24.804Z,96425.72
2023-04-24T02:14:54.434Z,96461.50
2023-04-24T02:17:22.790Z,96438.44
2023-04-24T02:19:51.065Z,96458.75
2023-04-24T02:22:19.239Z,96443.78
2023-04-24T02:24:47.557Z,96429.53
2023-04-24T02:27:15.893Z,96446.59
2023-04-24T02:29:44.523Z,96446.72
2023-04-24T02:32:16.737Z,96442.06
2023-04-24T02:34:45.214Z,96428.88
2023-04-24T02:37:13.323Z,96125.50
2023-04-24T02:39:41.739Z,96368.47
2023-04-24T02:42:10.304Z,96350.38
2023-04-24T02:44:38.520Z,96433.53
2023-04-24T02:47:06.907Z,96424.31
2023-04-24T02:49:36.627Z,96427.09
2023-04-24T02:52:04.943Z,96434.19
2023-04-24T02:54:33.126Z,96351.19
2023-04-24T02:57:02.286Z,96420.50
2023-04-24T02:59:30.486Z,96427.25
2023-04-24T03:01:58.674Z,96393.09
2023-04-24T03:04:27.392Z,96426.72
2023-04-24T03:06:57.479Z,96425.13
2023-04-24T03:09:25.810Z,96424.84
2023-04-24T03:11:54.030Z,96417.94
2023-04-24T03:14:22.160Z,96407.63
2023-04-24T03:16:50.314Z,96413.97
2023-04-24T03:19:18.553Z,96420.91
2023-04-24T03:21:46.786Z,96411.97
2023-04-24T03:24:16.444Z,96421.53
2023-04-24T03:26:44.525Z,96419.34
2023-04-24T03:29:12.622Z,96326.50
2023-04-24T03:31:40.919Z,96426.72
2023-04-24T03:34:09.215Z,96423.72
2023-04-24T03:36:37.360Z,96443.69
2023-04-24T03:39:06.540Z,96401.16
2023-04-24T03:41:36.248Z,96435.19
2023-04-24T03:44:04.400Z,96446.22
2023-04-24T03:46:32.741Z,96449.94
2023-04-24T03:49:00.939Z,96448.63
2023-04-24T03:51:31.411Z,96450.97
2023-04-24T03:53:59.584Z,96442.09
2023-04-24T03:56:27.905Z,96443.03
2023-04-24T03:58:57.573Z,96445.00
2023-04-24T04:01:25.904Z,96397.97
2023-04-24T04:03:54.275Z,96450.19
2023-04-24T04:06:22.677Z,96455.00
2023-04-24T04:08:50.757Z,96437.66
2023-04-24T04:11:19.091Z,96436.75
2023-04-24T04:13:49.098Z,96451.09
2023-04-24T04:16:18.982Z,96367.84
2023-04-24T04:18:47.491Z,96436.28
2023-04-24T04:21:15.762Z,96433.03
2023-04-24T04:23:43.946Z,96456.75
2023-04-24T04:26:13.574Z,96400.84
2023-04-24T04:28:42.020Z,96448.81
2023-04-24T04:31:10.644Z,96469.88
2023-04-24T04:33:40.628Z,96463.81
2023-04-24T04:36:09.801Z,96470.34
2023-04-24T04:38:38.312Z,96467.44
2023-04-24T04:41:06.701Z,96465.88
2023-04-24T04:43:35.785Z,96465.78
2023-04-24T04:46:04.798Z,96463.81
2023-04-24T04:48:33.697Z,96471.06
2023-04-24T04:51:03.470Z,96470.06
2023-04-24T04:53:31.737Z,96467.97
2023-04-24T04:56:00.718Z,96454.31
2023-04-24T04:58:28.983Z,96429.22
2023-04-24T05:00:58.542Z,96467.13
2023-04-24T05:03:27.072Z,96459.78
2023-04-24T05:05:55.391Z,96245.50
2023-04-24T05:08:27.483Z,96462.28
2023-04-24T05:13:40.986Z,96456.34
2023-04-24T05:16:09.621Z,96465.06
2023-04-24T05:18:42.150Z,96464.13
2023-04-24T05:21:10.331Z,96465.81
2023-04-24T05:23:39.958Z,96463.44
2023-04-24T05:26:08.167Z,96414.09
2023-04-24T05:28:37.897Z,96460.03
2023-04-24T05:31:06.436Z,96465.69
2023-04-24T05:33:34.742Z,96443.69
2023-04-24T05:36:02.983Z,96372.28
2023-04-24T05:38:31.124Z,96449.03
2023-04-24T05:41:00.876Z,96459.13
2023-04-24T05:43:29.083Z,96454.41
2023-04-24T05:45:57.269Z,96465.34
2023-04-24T05:48:25.587Z,96430.47
2023-04-24T05:50:53.891Z,96463.66
2023-04-24T05:53:22.001Z,96467.84
2023-04-24T05:55:50.753Z,96472.28
2023-04-24T05:58:20.597Z,96443.81
2023-04-24T06:00:49.072Z,96467.84
2023-04-24T06:03:17.420Z,96444.44
2023-04-24T06:05:45.676Z,96467.69
2023-04-24T06:08:14.003Z,96448.44
2023-04-24T06:10:42.437Z,96494.31
2023-04-24T06:13:10.879Z,96467.44
2023-04-24T06:15:40.561Z,96464.72
2023-04-24T06:18:08.826Z,96451.50
2023-04-24T06:20:37.067Z,96476.75
2023-04-24T06:23:05.269Z,96431.94
2023-04-24T06:25:33.797Z,96484.38
2023-04-24T06:28:02.794Z,96483.06
2023-04-24T06:30:30.913Z,96344.72
2023-04-24T06:33:06.174Z,96456.00
2023-04-24T06:35:41.460Z,96463.25
2023-04-24T06:38:09.603Z,96481.06
2023-04-24T06:40:37.825Z,96479.00
2023-04-24T06:43:07.277Z,96463.84
2023-04-24T06:45:35.498Z,96468.84
2023-04-24T06:48:05.439Z,96393.63
2023-04-24T06:50:33.610Z,96485.81
2023-04-24T06:53:01.764Z,96484.88
2023-04-24T06:55:29.951Z,96483.59
2023-04-24T06:57:58.217Z,96484.38
2023-04-24T07:00:26.584Z,96499.34
2023-04-24T07:02:55.125Z,96473.25
2023-04-24T07:05:24.879Z,96411.50
2023-04-24T07:07:53.493Z,96509.63
2023-04-24T07:10:22.805Z,96512.88
2023-04-24T07:12:50.983Z,96507.47
2023-04-24T07:15:19.191Z,96510.03
2023-04-24T07:17:47.332Z,96431.16
2023-04-24T07:20:15.906Z,96511.53
2023-04-24T07:22:45.862Z,96520.69
2023-04-24T07:25:14.090Z,96520.09
2023-04-24T07:27:42.321Z,96519.34
2023-04-24T07:30:11.168Z,96528.41
2023-04-24T07:32:39.381Z,96521.78
2023-04-24T07:35:08.433Z,96523.16
2023-04-24T07:37:36.596Z,96484.91
2023-04-24T07:40:06.936Z,96494.38
2023-04-24T07:42:35.839Z,96531.63
2023-04-24T07:45:04.154Z,96526.63
2023-04-24T07:47:32.661Z,96518.13
2023-04-24T07:50:01.677Z,96535.34
2023-04-24T07:52:29.847Z,96549.00
2023-04-24T07:54:59.496Z,96545.72
2023-04-24T07:57:29.144Z,96549.28
2023-04-24T07:59:57.429Z,96553.50
2023-04-24T08:02:27.894Z,96543.00
2023-04-24T08:04:57.003Z,96546.03
2023-04-24T08:07:26.439Z,96558.84
2023-04-24T08:09:54.994Z,96558.25
2023-04-24T08:12:23.388Z,96536.13
2023-04-24T08:14:52.972Z,96558.41
2023-04-24T08:17:21.475Z,96562.94
2023-04-24T08:19:49.871Z,96569.97
2023-04-24T08:22:17.966Z,96549.47
2023-04-24T08:24:46.130Z,96569.63
2023-04-24T08:27:14.365Z,96576.91
2023-04-24T08:29:42.801Z,96582.66
2023-04-24T08:32:12.685Z,96559.97
2023-04-24T08:34:40.893Z,96582.88
2023-04-24T08:37:09.162Z,96577.25
2023-04-24T08:39:37.395Z,96580.47
2023-04-24T08:42:09.319Z,96572.81
2023-04-24T08:44:38.603Z,96530.59
2023-04-24T08:47:07.456Z,96594.28
2023-04-24T08:49:38.791Z,96601.69
2023-04-24T08:52:07.452Z,96581.75
2023-04-24T08:54:37.798Z,96469.06
2023-04-24T08:57:06.375Z,96598.00
2023-04-24T08:59:35.074Z,96605.81
2023-04-24T09:02:05.960Z,96590.44
2023-04-24T09:04:38.521Z,96605.88
2023-04-24T09:07:09.217Z,96595.69
2023-04-24T09:09:38.063Z,96599.47
2023-04-24T09:12:06.501Z,96606.31
2023-04-24T09:14:37.274Z,96605.19
2023-04-24T09:17:05.721Z,96607.28
2023-04-24T09:19:34.117Z,96582.34
2023-04-24T09:22:08.288Z,96612.91
2023-04-24T09:24:37.026Z,96614.50
2023-04-24T09:27:06.226Z,96589.63
2023-04-24T09:29:34.672Z,96600.66
2023-04-24T09:32:22.748Z,96586.31
2023-04-24T09:34:52.072Z,96610.19
2023-04-24T09:37:31.728Z,96611.44
2023-04-24T09:40:13.941Z,96597.13
2023-04-24T09:42:42.159Z,96542.13
2023-04-24T09:45:15.361Z,96592.28
2023-04-24T09:47:45.821Z,96591.31
2023-04-24T09:50:15.948Z,96577.81
2023-04-24T09:52:48.311Z,96574.28
2023-04-24T09:55:20.106Z,96532.97
2023-04-24T09:57:55.928Z,96610.47
2023-04-24T10:00:28.720Z,96568.91
2023-04-24T10:02:58.223Z,96583.28
2023-04-24T10:05:29.164Z,96559.34
2023-04-24T10:08:04.045Z,96584.84
2023-04-24T10:10:32.762Z,96581.88
2023-04-24T10:13:02.026Z,96514.66
2023-04-24T10:15:30.392Z,96499.88
2023-04-24T10:18:00.859Z,96551.84
2023-04-24T10:20:31.892Z,96575.06
2023-04-24T10:23:02.408Z,96582.72
2023-04-24T10:25:32.627Z,96568.44
2023-04-24T10:28:02.209Z,96571.66
2023-04-24T10:30:32.186Z,96572.88
2023-04-24T10:33:01.773Z,96575.38
2023-04-24T10:35:33.851Z,96568.44
2023-04-24T10:38:07.881Z,96580.53
2023-04-24T10:40:37.419Z,96578.75
2023-04-24T10:43:09.045Z,96562.44
2023-04-24T10:45:37.558Z,96566.28
2023-04-24T10:48:11.921Z,96578.94
2023-04-24T10:50:48.143Z,96585.56
2023-04-24T10:53:19.845Z,96586.88
2023-04-24T10:55:49.999Z,96588.31
2023-04-24T10:58:18.915Z,96574.63
2023-04-24T11:00:58.599Z,96579.13
2023-04-24T11:03:29.184Z,96564.72
2023-04-24T11:06:02.294Z,96592.03
2023-04-24T11:08:34.235Z,96571.03
2023-04-24T11:11:06.418Z,96564.13
2023-04-24T11:14:11.589Z,96571.94
2023-04-24T11:16:45.710Z,96574.59
2023-04-24T11:19:24.665Z,96513.38
2023-04-24T11:21:58.530Z,96453.41
2023-04-24T11:24:30.193Z,96552.38
2023-04-24T11:26:59.762Z,96576.50
2023-04-24T11:29:47.219Z,96557.75
2023-04-24T11:32:29.113Z,96569.75
2023-04-24T11:34:59.034Z,96492.91
2023-04-24T11:37:29.427Z,96582.03
2023-04-24T11:40:01.196Z,96559.38
2023-04-24T11:42:30.823Z,96551.56
2023-04-24T11:44:59.198Z,96550.38
2023-04-24T11:47:32.043Z,96563.59
2023-04-24T11:50:01.652Z,96537.88
2023-04-24T11:52:32.115Z,96567.00
2023-04-24T11:55:02.402Z,96557.34
2023-04-24T11:57:34.769Z,96567.00
2023-04-24T12:00:04.498Z,96551.63
2023-04-24T12:02:33.714Z,96570.38
2023-04-24T12:05:02.256Z,96564.84
2023-04-24T12:07:30.664Z,96569.81
2023-04-24T12:10:01.168Z,96520.13
2023-04-24T12:12:31.152Z,96550.25
2023-04-24T12:15:01.027Z,96551.00
2023-04-24T12:17:32.125Z,96451.91
2023-04-24T12:20:03.468Z,96542.81
2023-04-24T12:22:46.669Z,96571.38
2023-04-24T12:25:15.818Z,96564.31
2023-04-24T12:27:46.067Z,96573.63
2023-04-24T12:30:16.348Z,96569.41
2023-04-24T12:32:45.724Z,96565.19
2023-04-24T12:35:14.397Z,96553.84
2023-04-24T12:37:47.229Z,96432.91
2023-04-24T12:40:17.131Z,96558.66
2023-04-24T12:42:48.583Z,96559.16
2023-04-24T12:45:18.103Z,96553.66
2023-04-24T12:47:48.124Z,96553.22
2023-04-24T12:50:17.515Z,96474.09
2023-04-24T12:52:47.493Z,96553.00
2023-04-24T12:55:15.854Z,96542.44
2023-04-24T12:57:44.047Z,96540.31
2023-04-24T13:00:14.853Z,96543.38
2023-04-24T13:02:43.104Z,96462.28
2023-04-24T13:05:12.728Z,96495.06
2023-04-24T13:07:40.917Z,96540.53
2023-04-24T13:10:10.440Z,96522.47
2023-04-24T13:12:38.807Z,96525.19
2023-04-24T13:15:08.265Z,96511.13
2023-04-24T13:17:37.986Z,96485.09
2023-04-24T13:20:08.515Z,96523.72
2023-04-24T13:22:36.676Z,96529.06
2023-04-24T13:25:07.187Z,96400.41
2023-04-24T13:27:35.560Z,96516.09
2023-04-24T13:30:04.170Z,96515.56
2023-04-24T13:32:32.383Z,96536.50
2023-04-24T13:35:02.031Z,96525.94
2023-04-24T13:37:30.222Z,96497.91
2023-04-24T13:39:58.398Z,96497.28
2023-04-24T13:42:26.632Z,96519.16
2023-04-24T13:44:55.186Z,96520.66
2023-04-24T13:47:23.520Z,96538.19
2023-04-24T13:49:51.872Z,96367.47
2023-04-24T13:52:21.480Z,96524.28
2023-04-24T13:54:49.859Z,96514.53
2023-04-24T13:57:18.853Z,96515.34
2023-04-24T13:59:47.732Z,96499.38
2023-04-24T14:02:15.965Z,96495.13
2023-04-24T14:04:44.350Z,96424.00
2023-04-24T14:07:12.799Z,96519.28
2023-04-24T14:09:42.481Z,96507.44
2023-04-24T14:12:10.699Z,96510.06
2023-04-24T14:14:39.167Z,96507.63
2023-04-24T14:17:07.913Z,96505.53
2023-04-24T14:19:36.097Z,96524.44
2023-04-24T14:22:04.257Z,96523.59
2023-04-24T14:24:32.638Z,96513.22
2023-04-24T14:27:02.603Z,96522.00
2023-04-24T14:29:30.931Z,96524.97
2023-04-24T14:31:59.293Z,96524.19
2023-04-24T14:34:27.623Z,96508.81
2023-04-24T14:36:56.040Z,96523.66
2023-04-24T14:39:24.375Z,96527.72
2023-04-24T14:41:52.648Z,96526.16
2023-04-24T14:44:22.809Z,96520.75
2023-04-24T14:46:51.343Z,96522.94
2023-04-24T14:49:19.630Z,96525.19
2023-04-24T14:51:47.806Z,96521.47
2023-04-24T14:54:16.018Z,96534.28
2023-04-24T14:56:45.442Z,96476.16
2023-04-24T14:59:14.317Z,96532.91
2023-04-24T15:01:44.100Z,96531.19
2023-04-24T15:04:12.464Z,96509.16
2023-04-24T15:06:40.870Z,96502.69
2023-04-24T15:09:09.319Z,96515.50
2023-04-24T15:11:37.653Z,96521.63
2023-04-24T15:14:05.851Z,96531.31
2023-04-24T15:16:34.515Z,96530.75
2023-04-24T15:19:04.160Z,96534.44
2023-04-24T15:21:32.567Z,96517.75
2023-04-24T15:24:00.847Z,96511.28
2023-04-24T15:26:29.087Z,96487.94
2023-04-24T15:28:57.463Z,96534.06
2023-04-24T15:31:25.758Z,96529.78
2023-04-24T15:33:53.911Z,96528.94
2023-04-24T15:36:23.816Z,96477.50
2023-04-24T15:38:52.396Z,96524.88
2023-04-24T15:41:20.553Z,96535.63
2023-04-24T15:43:49.139Z,96546.25
2023-04-24T15:46:18.094Z,96539.31
2023-04-24T15:48:46.629Z,96560.09
2023-04-24T15:51:14.852Z,96626.38
2023-04-24T15:53:44.607Z,96641.22
2023-04-24T15:56:13.051Z,96621.47
2023-04-24T15:58:41.551Z,96618.09
2023-04-24T16:01:09.796Z,96604.97
2023-04-24T16:03:38.269Z,96593.94
2023-04-24T16:06:07.106Z,96561.22
2023-04-24T16:08:36.442Z,96534.13
2023-04-24T16:11:06.279Z,96555.56
2023-04-24T16:13:34.722Z,96558.06
2023-04-24T16:16:03.017Z,96570.59
2023-04-24T16:18:31.410Z,96548.84
2023-04-24T16:20:59.784Z,96563.19
2023-04-24T16:23:28.011Z,96562.97
2023-04-24T16:25:56.415Z,96561.34
2023-04-24T16:28:27.446Z,96566.75
2023-04-24T16:30:55.730Z,96564.41
2023-04-24T16:33:26.469Z,96569.66
2023-04-24T16:35:54.731Z,96574.53
2023-04-24T16:38:24.564Z,96578.56
2023-04-24T16:40:52.798Z,96581.19
2023-04-24T16:43:21.097Z,96568.84
2023-04-24T16:45:50.821Z,96575.00
2023-04-24T16:48:19.045Z,96566.13
2023-04-24T16:50:47.601Z,96575.38
2023-04-24T16:53:16.013Z,96578.38
2023-04-24T16:55:44.694Z,96583.63
2023-04-24T16:58:12.933Z,96530.88
2023-04-24T17:00:41.160Z,96583.50
2023-04-24T17:03:12.640Z,96467.44
2023-04-24T17:05:41.217Z,96512.59
2023-04-24T17:08:10.397Z,96572.91
2023-04-24T17:10:39.841Z,96564.00
2023-04-24T17:13:08.886Z,96584.22
2023-04-24T17:15:37.049Z,96556.59
2023-04-24T17:18:05.817Z,96555.47
2023-04-24T17:20:35.529Z,96594.50
2023-04-24T17:23:03.777Z,96550.22
2023-04-24T17:25:32.045Z,96598.09
2023-04-24T17:28:00.197Z,96589.63
2023-04-24T17:30:28.467Z,96572.03
2023-04-24T17:32:56.587Z,96608.44
2023-04-24T17:35:24.876Z,96609.16
2023-04-24T17:37:54.510Z,96572.06
2023-04-24T17:40:22.972Z,96611.44
2023-04-24T17:42:51.182Z,96572.41
2023-04-24T17:45:19.347Z,96619.22
2023-04-24T17:47:47.808Z,96651.81
2023-04-24T17:50:16.083Z,96630.72
2023-04-24T17:52:44.293Z,96649.66
2023-04-24T17:55:14.009Z,96639.66
2023-04-24T17:57:42.436Z,96652.97
2023-04-24T18:00:11.929Z,96662.31
2023-04-24T18:02:40.492Z,96649.66
2023-04-24T18:05:08.939Z,96653.16
2023-04-24T18:07:37.030Z,96499.34
2023-04-24T18:10:05.514Z,96688.81
2023-04-24T18:12:36.308Z,96684.63
2023-04-24T18:15:14.284Z,96659.78
2023-04-24T18:17:43.081Z,96697.06
2023-04-24T18:20:12.231Z,96686.56
2023-04-24T18:22:41.163Z,96699.53
2023-04-24T18:25:10.576Z,96655.72
2023-04-24T18:27:41.175Z,96679.63
2023-04-24T18:30:14.224Z,96670.47
2023-04-24T18:32:43.313Z,96707.91
2023-04-24T18:35:12.241Z,96710.72
2023-04-24T18:37:40.696Z,96712.59
2023-04-24T18:40:10.485Z,96718.16
2023-04-24T18:42:40.271Z,96714.88
2023-04-24T18:45:09.734Z,96633.00
2023-04-24T18:47:38.777Z,96724.59
2023-04-24T18:50:07.858Z,96675.25
2023-04-24T18:52:36.758Z,96711.03
2023-04-24T18:55:06.878Z,96657.94
2023-04-24T18:57:35.514Z,96707.34
2023-04-24T19:00:07.034Z,96717.47
2023-04-24T19:02:36.055Z,96735.38
2023-04-24T19:05:04.976Z,96735.97
2023-04-24T19:07:33.510Z,96732.75
2023-04-24T19:10:02.286Z,96735.28
2023-04-24T19:12:30.983Z,96741.28
2023-04-24T19:15:00.519Z,96735.78
2023-04-24T19:17:32.030Z,96736.91
2023-04-24T19:20:00.634Z,96740.22
2023-04-24T19:22:30.538Z,96741.63
2023-04-24T19:25:00.579Z,96695.19
2023-04-24T19:27:29.894Z,96712.59
2023-04-24T19:29:58.947Z,96749.34
2023-04-24T19:32:27.499Z,96683.91
2023-04-24T19:34:57.296Z,96728.00
2023-04-24T19:37:25.441Z,96673.03
2023-04-24T19:39:53.751Z,96732.81
2023-04-24T19:42:31.798Z,96760.72
2023-04-24T19:45:13.565Z,96761.78
2023-04-24T19:47:42.177Z,96767.88
2023-04-24T19:50:12.458Z,96771.69
2023-04-24T19:52:40.665Z,96763.22
2023-04-24T19:55:09.860Z,96754.50
2023-04-24T19:57:38.032Z,96729.19
2023-04-24T20:00:08.234Z,96764.81
2023-04-24T20:02:36.689Z,96666.13
2023-04-24T20:05:05.322Z,96764.59
2023-04-24T20:07:34.984Z,96769.72
2023-04-24T20:10:03.304Z,96765.50
2023-04-24T20:12:31.496Z,96779.34
2023-04-24T20:14:59.760Z,96772.34
2023-04-24T20:17:28.051Z,96709.13
2023-04-24T20:19:56.273Z,96724.94
2023-04-24T20:22:24.528Z,96785.47
2023-04-24T20:24:54.158Z,96787.19
2023-04-24T20:27:22.493Z,96786.81
2023-04-24T20:29:50.717Z,96787.00
2023-04-24T20:32:18.882Z,96777.47
2023-04-24T20:34:47.114Z,96780.00
2023-04-24T20:37:15.302Z,96792.03
2023-04-24T20:39:44.662Z,96795.94
2023-04-24T20:42:16.784Z,96778.84
2023-04-24T20:44:47.154Z,96802.16
2023-04-24T20:47:15.923Z,96782.00
2023-04-24T20:49:44.383Z,96778.75
2023-04-24T20:52:12.610Z,96806.97
2023-04-24T20:54:42.019Z,96798.44
2023-04-24T20:57:10.231Z,96792.78
2023-04-24T20:59:40.740Z,96803.94
2023-04-24T21:02:09.315Z,96799.97
2023-04-24T21:04:39.878Z,96793.16
2023-04-24T21:07:09.461Z,96804.28
2023-04-24T21:09:37.638Z,96795.56
2023-04-24T21:12:06.368Z,96781.72
2023-04-24T21:14:36.073Z,96787.38
2023-04-24T21:17:05.704Z,96794.56
2023-04-24T21:19:33.974Z,96780.78
2023-04-24T21:22:02.336Z,96781.13
2023-04-24T21:24:30.857Z,96776.31
2023-04-24T21:26:59.035Z,96770.91
2023-04-24T21:29:27.222Z,96797.88
2023-04-24T21:31:55.910Z,96788.13
2023-04-24T21:34:25.639Z,96792.03
2023-04-24T21:36:53.838Z,96797.63
2023-04-24T21:39:22.073Z,96780.53
2023-04-24T21:41:50.224Z,96768.63
2023-04-24T21:44:18.406Z,96781.63
2023-04-24T21:46:46.723Z,96797.31
2023-04-24T21:49:14.916Z,96777.28
2023-04-24T21:51:44.439Z,96800.53
2023-04-24T21:54:12.681Z,96791.72
2023-04-24T21:56:41.610Z,96796.41
2023-04-24T21:59:09.970Z,96798.97
2023-04-24T22:01:38.213Z,96789.22
2023-04-24T22:04:06.880Z,96794.47
2023-04-24T22:06:35.108Z,96779.97
2023-04-24T22:09:04.898Z,96780.47
2023-04-24T22:11:35.012Z,96791.09
2023-04-24T22:14:04.433Z,96778.56
2023-04-24T22:16:34.461Z,96799.81
2023-04-24T22:19:03.359Z,96760.56
2023-04-24T22:21:31.628Z,96784.03
2023-04-24T22:23:59.831Z,96782.16
2023-04-24T22:26:29.417Z,96730.19
2023-04-24T22:28:57.521Z,96770.56
2023-04-24T22:31:28.899Z,96794.56
2023-04-24T22:33:57.331Z,96770.22
2023-04-24T22:36:25.402Z,96796.28
2023-04-24T22:38:53.551Z,96792.13
2023-04-24T22:41:22.994Z,96796.50
2023-04-24T22:43:53.085Z,96742.41
2023-04-24T22:46:21.594Z,96800.41
2023-04-24T22:48:50.228Z,96783.34
2023-04-24T22:51:18.999Z,96802.22
2023-04-24T22:53:49.755Z,96797.81
2023-04-24T22:56:18.304Z,96805.47
2023-04-24T22:58:46.707Z,96800.97
2023-04-24T23:01:17.523Z,96799.34
2023-04-24T23:03:45.803Z,96798.19
2023-04-24T23:06:14.353Z,96735.88
2023-04-24T23:08:42.558Z,96795.78
2023-04-24T23:11:11.497Z,96795.88
2023-04-24T23:13:40.167Z,96789.88
2023-04-24T23:16:08.835Z,96788.66
2023-04-24T23:18:38.379Z,96769.19
2023-04-24T23:21:07.021Z,96779.66
2023-04-24T23:23:35.288Z,96780.44
2023-04-24T23:26:03.500Z,96790.91
2023-04-24T23:28:31.696Z,96708.81
2023-04-24T23:30:59.904Z,96779.56
2023-04-24T23:33:28.639Z,96735.09
2023-04-24T23:35:58.584Z,96772.31
2023-04-24T23:38:28.680Z,96782.09
2023-04-24T23:41:00.724Z,96782.88
2023-04-24T23:43:28.858Z,96781.28
2023-04-24T23:45:56.955Z,96767.59
2023-04-24T23:48:25.443Z,96779.47
2023-04-24T23:50:53.613Z,96779.34
2023-04-24T23:53:23.197Z,96773.03
2023-04-24T23:55:51.332Z,96784.47
2023-04-24T23:58:19.572Z,96788.78
